Time;durP1;ratioP1;P1;durP2;ratioP2;P2;SDS_P1;SDS_P2;PMS_P1;PMS_P2;Temp;Humidity;BMP_temperature;BMP_pressure;BME280_temperature;BME280_humidity;BME280_pressure;Samples;Min_cycle;Max_cycle;Signal;HPM_P1;HPM_P2
2022/04/12 00:00:30;;;;;;;6.25;4.80;;;;;;;9.40;56.46;101040.38;5099581;28;20024;-75
2022/04/12 00:02:55;;;;;;;7.57;5.07;;;;;;;9.41;55.58;101037.72;5104310;28;20080;-75
2022/04/12 00:05:21;;;;;;;6.43;4.70;;;;;;;9.35;56.05;101025.69;5113254;28;20038;-74
2022/04/12 00:07:46;;;;;;;9.55;5.18;;;;;;;9.32;55.55;101022.28;5094762;27;20059;-75
2022/04/12 00:10:13;;;;;;;10.98;5.28;;;;;;;9.33;54.21;101027.44;5093092;28;20035;-74
2022/04/12 00:12:38;;;;;;;6.43;5.13;;;;;;;9.29;56.80;101023.19;5109559;28;20035;-75
2022/04/12 00:15:05;;;;;;;8.10;5.32;;;;;;;9.25;55.37;101020.63;5109967;28;20023;-75
2022/04/12 00:20:15;;;;;;;8.20;5.28;;;;;;;9.20;55.12;101012.91;5110259;28;20034;-75
2022/04/12 00:22:41;;;;;;;7.85;5.13;;;;;;;9.23;54.84;101018.06;5112998;28;20020;-74
2022/04/12 00:25:09;;;;;;;8.63;5.15;;;;;;;9.20;57.10;101014.66;5114048;27;20492;-74
2022/04/12 00:27:35;;;;;;;10.88;5.20;;;;;;;9.09;56.28;101005.28;5113586;28;20028;-74
2022/04/12 00:30:00;;;;;;;6.68;5.18;;;;;;;9.13;55.56;101019.09;5112878;28;20440;-75
2022/04/12 00:32:26;;;;;;;7.78;4.65;;;;;;;9.11;57.82;101013.91;5113667;28;20015;-75
2022/04/12 00:34:51;;;;;;;7.30;4.72;;;;;;;9.08;55.47;101007.88;5113520;27;20027;-75
2022/04/12 00:37:17;;;;;;;6.10;4.47;;;;;;;9.07;56.25;101021.78;5108932;28;20425;-75
2022/04/12 00:39:42;;;;;;;7.75;4.57;;;;;;;9.01;57.11;101016.66;5113355;28;20031;-74
2022/04/12 00:42:08;;;;;;;5.60;4.20;;;;;;;8.96;56.09;101014.13;5113608;28;20072;-74
2022/04/12 00:44:33;;;;;;;6.13;4.40;;;;;;;8.95;57.78;101014.16;5112699;28;20546;-74
2022/04/12 00:46:58;;;;;;;7.38;4.75;;;;;;;8.92;56.85;101009.84;5113243;28;20065;-75
2022/04/12 00:49:24;;;;;;;10.63;4.57;;;;;;;8.91;58.12;101015.94;5113069;28;20015;-75
2022/04/12 00:51:49;;;;;;;6.85;4.60;;;;;;;8.87;57.18;101009.06;5112166;28;20048;-74
2022/04/12 00:54:19;;;;;;;9.15;4.70;;;;;;;8.83;57.26;101013.44;5106518;27;20028;-75
2022/04/12 00:56:44;;;;;;;6.72;4.63;;;;;;;8.80;58.34;101012.63;5092135;28;20035;-75
2022/04/12 00:59:11;;;;;;;7.80;4.43;;;;;;;8.76;56.41;101021.31;5092706;28;20055;-75
2022/04/12 01:01:36;;;;;;;7.60;4.40;;;;;;;8.71;56.74;101021.41;5092951;28;20020;-75
2022/04/12 01:04:01;;;;;;;7.75;4.47;;;;;;;8.66;57.59;101011.06;5092358;28;20043;-74
2022/04/12 01:06:26;;;;;;;6.38;4.35;;;;;;;8.66;57.52;101020.59;5092556;28;20030;-74
2022/04/12 01:08:52;;;;;;;10.10;4.90;;;;;;;8.65;56.37;101014.53;5092685;28;20414;-74
2022/04/12 01:11:17;;;;;;;6.70;4.18;;;;;;;8.56;57.94;101008.59;5092296;28;20020;-74
2022/04/12 01:13:42;;;;;;;6.75;4.85;;;;;;;8.55;57.18;101001.69;5105063;27;20026;-75
2022/04/12 01:16:08;;;;;;;7.72;4.40;;;;;;;8.56;56.98;101006.84;5113247;28;20451;-74
2022/04/12 01:18:34;;;;;;;6.50;4.20;;;;;;;8.51;57.01;101006.06;5111756;28;20019;-74
2022/04/12 01:21:01;;;;;;;6.72;4.20;;;;;;;8.50;57.29;101009.53;5112742;28;20451;-75
2022/04/12 01:23:41;;;;;;;9.88;4.65;;;;;;;8.40;58.02;101002.72;5112581;28;20106;-74
2022/04/12 01:26:07;;;;;;;7.30;4.10;;;;;;;8.41;58.03;101015.69;5112096;28;20101;-74
2022/04/12 01:28:33;;;;;;;8.02;4.40;;;;;;;8.37;57.73;101002.72;5103374;28;20039;-74
2022/04/12 01:30:58;;;;;;;8.48;4.30;;;;;;;8.36;57.87;101006.19;5092290;28;20479;-75
2022/04/12 01:33:23;;;;;;;8.23;4.38;;;;;;;8.35;58.97;101009.69;5091390;28;20028;-74
2022/04/12 01:35:48;;;;;;;6.38;4.22;;;;;;;8.31;58.76;100998.47;5092097;28;20036;-75
2022/04/12 01:38:14;;;;;;;9.00;4.53;;;;;;;8.25;57.93;100993.34;5091936;28;20467;-74
2022/04/12 01:40:39;;;;;;;7.90;4.47;;;;;;;8.27;58.72;101006.31;5091358;28;20028;-75
2022/04/12 01:43:04;;;;;;;7.15;4.40;;;;;;;8.24;59.19;101002.03;5092211;28;20043;-75
2022/04/12 01:45:30;;;;;;;11.05;4.78;;;;;;;8.20;60.68;101002.91;5092209;28;20456;-75
2022/04/12 01:47:57;;;;;;;6.85;4.85;;;;;;;8.17;61.01;101001.22;5100986;28;20063;-75
2022/04/12 01:50:23;;;;;;;6.47;4.50;;;;;;;8.15;60.65;101002.97;5106122;28;20131;-74
2022/04/12 01:52:48;;;;;;;7.13;4.78;;;;;;;8.14;60.46;100990.88;5091715;28;20055;-75
2022/04/12 01:55:14;;;;;;;7.30;5.10;;;;;;;8.11;60.29;100990.91;5091305;28;20096;-75
2022/04/12 01:57:39;;;;;;;7.45;4.45;;;;;;;8.08;61.09;100984.88;5096811;28;20031;-74
2022/04/12 02:00:07;;;;;;;10.98;5.25;;;;;;;8.05;60.60;100979.72;5094341;28;20397;-74
2022/04/12 02:02:32;;;;;;;7.13;4.32;;;;;;;8.03;61.56;100987.53;5102102;28;20024;-75
2022/04/12 02:04:57;;;;;;;9.50;4.53;;;;;;;7.98;60.48;100984.97;5106138;28;20027;-75
2022/04/12 02:07:23;;;;;;;10.05;5.43;;;;;;;7.96;59.51;100989.31;5110126;28;20032;-74
2022/04/12 02:09:48;;;;;;;7.55;4.63;;;;;;;7.93;60.39;100996.28;5100026;28;20048;-74
2022/04/12 02:12:13;;;;;;;8.38;4.75;;;;;;;7.87;62.36;100988.56;5100181;28;20027;-74
2022/04/12 02:14:38;;;;;;;9.85;4.93;;;;;;;7.84;62.13;100997.22;5111144;28;20050;-74
2022/04/12 02:17:04;;;;;;;6.95;4.40;;;;;;;7.80;62.64;100998.13;5111401;28;20425;-74
2022/04/12 02:19:29;;;;;;;6.90;4.43;;;;;;;7.73;61.95;100979.16;5110136;28;20032;-74
2022/04/12 02:21:55;;;;;;;8.25;4.97;;;;;;;7.76;63.04;100987.81;5090790;28;20111;-75
2022/04/12 02:24:20;;;;;;;6.28;4.78;;;;;;;7.70;63.08;100983.53;5091436;28;20024;-74
2022/04/12 02:26:45;;;;;;;6.70;4.85;;;;;;;7.67;63.87;100989.59;5091397;28;20109;-74
2022/04/12 02:29:13;;;;;;;8.68;5.03;;;;;;;7.67;62.72;100997.38;5094060;28;20024;-74
2022/04/12 02:31:39;;;;;;;7.25;3.97;;;;;;;7.68;62.78;100987.84;5106451;28;20035;-74
2022/04/12 02:34:04;;;;;;;6.00;4.20;;;;;;;7.63;62.41;100981.88;5110274;28;20023;-74
2022/04/12 02:36:29;;;;;;;8.48;4.50;;;;;;;7.63;62.87;100980.13;5092339;28;20139;-74
2022/04/12 02:38:54;;;;;;;7.97;4.90;;;;;;;7.57;64.41;100979.31;5104311;28;20510;-74
2022/04/12 02:41:20;;;;;;;7.80;4.75;;;;;;;7.55;62.95;100983.66;5103240;28;20028;-74
2022/04/12 02:43:45;;;;;;;8.07;4.60;;;;;;;7.50;63.50;100987.16;5110261;28;20024;-74
2022/04/12 02:46:10;;;;;;;9.98;4.82;;;;;;;7.45;63.99;100975.94;5107499;28;20387;-74
2022/04/12 02:48:36;;;;;;;6.15;4.68;;;;;;;7.40;63.87;100964.78;5110007;28;20024;-74
2022/04/12 02:51:01;;;;;;;8.25;5.25;;;;;;;7.34;64.00;100966.56;5097835;28;20048;-74
2022/04/12 02:53:26;;;;;;;9.77;4.93;;;;;;;7.30;64.35;100967.47;5108339;28;20027;-74
2022/04/12 02:55:51;;;;;;;11.27;5.57;;;;;;;7.28;64.62;100970.03;5108014;28;20047;-74
2022/04/12 02:58:19;;;;;;;6.47;4.53;;;;;;;7.26;63.81;100974.41;5104715;28;20495;-74
2022/04/12 03:00:44;;;;;;;8.27;5.05;;;;;;;7.21;65.50;100958.88;5107536;28;20085;-74
2022/04/12 03:03:10;;;;;;;9.60;4.72;;;;;;;7.21;64.70;100960.59;5108874;28;20459;-74
2022/04/12 03:05:35;;;;;;;10.80;5.53;;;;;;;7.18;65.54;100963.22;5109662;28;20055;-74
2022/04/12 03:08:01;;;;;;;9.02;5.20;;;;;;;7.16;65.65;100960.66;5105726;28;20024;-74
2022/04/12 03:10:27;;;;;;;8.50;4.93;;;;;;;7.11;64.73;100952.03;5102151;28;20023;-74
2022/04/12 03:12:52;;;;;;;9.50;5.28;;;;;;;7.04;66.03;100948.63;5103533;28;20031;-74
2022/04/12 03:15:18;;;;;;;6.13;4.60;;;;;;;7.04;65.35;100945.19;5108316;28;20028;-74
2022/04/12 03:17:43;;;;;;;7.75;4.95;;;;;;;6.93;66.58;100936.59;5111990;28;20367;-74
2022/04/12 03:20:09;;;;;;;9.73;5.30;;;;;;;6.92;65.41;100945.25;5111134;28;20028;-74
2022/04/12 03:22:34;;;;;;;10.68;4.97;;;;;;;6.93;66.44;100926.22;5095485;28;20474;-74
2022/04/12 03:25:01;;;;;;;11.85;5.30;;;;;;;6.93;66.45;100928.81;5093113;28;20046;-74
2022/04/12 03:27:27;;;;;;;9.50;5.28;;;;;;;6.90;66.75;100923.66;5102243;28;20031;-74
2022/04/12 03:29:52;;;;;;;9.75;5.32;;;;;;;6.88;66.96;100926.28;5115118;28;20546;-74
2022/04/12 03:32:17;;;;;;;8.98;5.18;;;;;;;6.89;66.51;100930.56;5112049;28;20047;-74
2022/04/12 03:34:44;;;;;;;9.88;5.28;;;;;;;6.90;66.61;100926.25;5110668;28;20035;-75
2022/04/12 03:37:10;;;;;;;11.88;5.68;;;;;;;6.90;67.19;100931.44;5111813;28;20015;-74
2022/04/12 03:39:35;;;;;;;7.18;5.18;;;;;;;6.89;68.05;100940.09;5113052;28;20379;-75
2022/04/12 03:42:01;;;;;;;12.05;5.00;;;;;;;6.90;66.06;100941.81;5095578;28;20435;-75
2022/04/12 03:44:26;;;;;;;7.60;5.10;;;;;;;6.85;66.55;100935.81;5110130;28;20019;-74
2022/04/12 03:46:51;;;;;;;14.40;5.60;;;;;;;6.86;67.09;100934.94;5109534;28;20126;-75
2022/04/12 03:49:16;;;;;;;8.95;5.50;;;;;;;6.87;66.63;100931.50;5113047;28;20034;-75
2022/04/12 03:51:41;;;;;;;12.90;5.75;;;;;;;6.82;67.53;100926.31;5111228;28;20047;-75
2022/04/12 03:54:07;;;;;;;8.48;5.18;;;;;;;6.77;67.15;100908.22;5112441;28;20032;-74
2022/04/12 03:56:32;;;;;;;12.18;5.57;;;;;;;6.76;67.59;100905.63;5110777;28;20144;-74
2022/04/12 03:58:58;;;;;;;9.88;5.47;;;;;;;6.77;67.82;100904.78;5093441;28;20024;-74
2022/04/12 04:01:25;;;;;;;8.45;5.40;;;;;;;6.80;67.66;100913.38;5093885;28;20464;-74
2022/04/12 04:03:50;;;;;;;8.98;5.10;;;;;;;6.77;67.28;100921.16;5093454;28;20074;-74
2022/04/12 04:06:15;;;;;;;10.88;5.43;;;;;;;6.79;66.73;100932.38;5107378;28;20439;-74
2022/04/12 04:08:41;;;;;;;10.43;5.15;;;;;;;6.87;68.33;100927.16;5111780;28;20364;-75
2022/04/12 04:11:06;;;;;;;8.05;5.13;;;;;;;6.89;68.79;100921.94;5106920;28;20032;-74
2022/04/12 04:13:36;;;;;;;10.02;5.57;;;;;;;6.85;68.06;100910.75;5102792;28;20383;-74
2022/04/12 04:16:01;;;;;;;13.20;5.68;;;;;;;6.93;67.71;100910.69;5108528;27;20027;-74
2022/04/12 04:18:27;;;;;;;7.20;5.30;;;;;;;6.92;67.96;100908.97;5109858;28;20029;-74
2022/04/12 04:20:52;;;;;;;7.57;5.47;;;;;;;6.93;68.29;100910.69;5107583;28;20032;-74
2022/04/12 04:23:17;;;;;;;9.55;5.95;;;;;;;6.90;68.18;100915.88;5111946;28;20092;-74
2022/04/12 04:25:43;;;;;;;11.32;6.20;;;;;;;6.90;66.96;100913.28;5113051;28;20023;-75
2022/04/12 04:28:11;;;;;;;11.45;5.60;;;;;;;6.86;68.76;100904.69;5110050;28;20020;-74
2022/04/12 04:30:38;;;;;;;7.18;5.03;;;;;;;6.82;68.26;100907.31;5099956;28;20463;-74
2022/04/12 04:33:05;;;;;;;9.05;5.30;;;;;;;6.80;68.77;100926.34;5110242;28;20019;-75
2022/04/12 04:35:30;;;;;;;12.45;6.00;;;;;;;6.80;68.14;100928.03;5111788;28;20031;-74
2022/04/12 04:37:56;;;;;;;7.88;5.55;;;;;;;6.83;67.20;100916.81;5108425;28;20386;-74
2022/04/12 04:40:22;;;;;;;8.13;5.75;;;;;;;6.84;67.92;100918.53;5113620;28;20028;-74
2022/04/12 04:42:51;;;;;;;9.50;5.60;;;;;;;6.80;68.80;100931.53;5096924;28;20452;-74
2022/04/12 04:45:16;;;;;;;8.93;5.45;;;;;;;6.71;68.74;100931.56;5111490;28;20068;-74
2022/04/12 04:47:49;;;;;;;9.60;6.30;;;;;;;6.71;69.28;100946.25;5099612;28;20032;-74
2022/04/12 04:50:16;;;;;;;14.88;6.20;;;;;;;6.66;69.08;100955.78;5111482;28;20459;-74
2022/04/12 04:52:41;;;;;;;13.13;6.32;;;;;;;6.62;70.08;100956.66;5110648;28;20024;-74
2022/04/12 04:55:07;;;;;;;10.63;6.97;;;;;;;6.61;68.96;100961.00;5094077;28;20545;-74
2022/04/12 04:57:32;;;;;;;24.65;7.00;;;;;;;6.61;69.17;100961.00;5099791;28;20028;-74
2022/04/12 04:59:57;;;;;;;9.00;6.15;;;;;;;6.64;69.72;100963.56;5113238;28;20061;-74
2022/04/12 05:02:22;;;;;;;18.25;6.80;;;;;;;6.67;69.80;100960.97;5107147;28;20028;-74
2022/04/12 05:04:48;;;;;;;11.95;5.93;;;;;;;6.65;68.70;100954.91;5093032;28;20067;-74
2022/04/12 05:07:13;;;;;;;9.50;6.53;;;;;;;6.71;69.72;100947.13;5103013;28;20085;-74
2022/04/12 05:09:38;;;;;;;10.18;6.60;;;;;;;6.74;71.86;100941.06;5102729;28;20471;-74
2022/04/12 05:12:04;;;;;;;18.17;7.20;;;;;;;6.82;71.81;100943.59;5111180;28;20028;-74
2022/04/12 05:14:29;;;;;;;13.20;6.90;;;;;;;6.86;72.18;100940.97;5112728;28;20069;-74
2022/04/12 05:16:54;;;;;;;11.82;7.07;;;;;;;6.93;71.34;100936.59;5110234;28;20032;-74
2022/04/12 05:19:19;;;;;;;11.50;6.82;;;;;;;7.02;70.56;100942.56;5091350;28;20574;-74
2022/04/12 05:21:45;;;;;;;13.88;6.10;;;;;;;7.11;69.36;100938.22;5109054;28;20023;-74
2022/04/12 05:24:10;;;;;;;14.77;6.75;;;;;;;7.19;70.32;100950.25;5107141;28;20110;-74
2022/04/12 05:26:35;;;;;;;11.57;6.38;;;;;;;7.23;69.40;100931.19;5101444;28;20027;-74
2022/04/12 05:29:01;;;;;;;12.27;7.13;;;;;;;7.33;68.46;100933.72;5090678;28;20050;-74
2022/04/12 05:31:26;;;;;;;11.90;6.45;;;;;;;7.40;68.11;100935.38;5093038;28;20028;-74
2022/04/12 05:33:51;;;;;;;13.32;6.50;;;;;;;7.44;67.65;100926.69;5111431;28;20514;-74
2022/04/12 05:36:16;;;;;;;13.00;7.05;;;;;;;7.49;67.34;100930.97;5108859;28;20084;-74
2022/04/12 05:38:42;;;;;;;13.40;6.90;;;;;;;7.50;67.92;100937.88;5108067;28;20028;-74
2022/04/12 05:41:07;;;;;;;9.77;6.60;;;;;;;7.47;67.66;100937.03;5110959;28;20032;-74
2022/04/12 05:43:32;;;;;;;12.73;6.90;;;;;;;7.48;67.60;100933.56;5103892;28;20157;-74
2022/04/12 05:45:57;;;;;;;11.05;6.90;;;;;;;7.46;67.59;100936.19;5099950;28;20475;-74
2022/04/12 05:48:23;;;;;;;10.07;6.45;;;;;;;7.43;68.03;100933.63;5112034;28;20020;-74
2022/04/12 05:50:48;;;;;;;13.05;7.10;;;;;;;7.44;67.45;100942.25;5109852;28;20075;-74
2022/04/12 05:53:13;;;;;;;12.10;7.30;;;;;;;7.44;68.61;100950.88;5105804;28;20032;-74
2022/04/12 05:55:39;;;;;;;12.88;7.03;;;;;;;7.42;67.96;100950.06;5091273;28;20040;-74
2022/04/12 05:58:04;;;;;;;12.68;6.90;;;;;;;7.41;67.56;100948.31;5098042;28;20051;-74
2022/04/12 06:00:31;;;;;;;12.55;6.88;;;;;;;7.42;67.50;100951.78;5108879;28;20027;-74
2022/04/12 06:02:57;;;;;;;14.18;7.65;;;;;;;7.41;68.37;100945.72;5111050;28;20081;-74
2022/04/12 06:05:25;;;;;;;10.63;6.88;;;;;;;7.42;68.69;100947.47;5109165;28;20033;-74
2022/04/12 06:07:50;;;;;;;10.45;7.05;;;;;;;7.44;69.10;100942.25;5107497;28;20076;-74
2022/04/12 06:10:17;;;;;;;12.52;7.22;;;;;;;7.49;67.57;100950.88;5108672;28;20036;-74
2022/04/12 06:12:42;;;;;;;11.30;7.32;;;;;;;7.60;67.11;100948.16;5100208;28;20085;-74
2022/04/12 06:15:08;;;;;;;14.65;6.95;;;;;;;7.70;67.69;100939.41;5110176;28;20039;-74
2022/04/12 06:17:35;;;;;;;12.15;7.18;;;;;;;7.83;68.92;100942.75;5107466;28;20479;-74
2022/04/12 06:20:06;;;;;;;13.35;7.40;;;;;;;7.96;66.04;100933.94;5098951;28;20049;-74
2022/04/12 06:22:32;;;;;;;15.48;7.10;;;;;;;8.12;66.99;100945.88;5099694;28;20028;-75
2022/04/12 06:24:58;;;;;;;11.60;7.38;;;;;;;8.23;65.93;100944.88;5107444;28;20036;-74
2022/04/12 06:27:36;;;;;;;12.13;7.20;;;;;;;8.34;65.64;100945.63;5108638;28;20506;-74
2022/04/12 06:30:13;;;;;;;13.70;7.13;;;;;;;8.41;65.27;100947.28;5110573;28;20077;-74
2022/04/12 06:32:38;;;;;;;15.75;7.15;;;;;;;8.44;64.49;100948.13;5110135;28;20020;-74
2022/04/12 06:35:06;;;;;;;10.35;7.15;;;;;;;8.54;64.26;100956.66;5106464;28;20110;-74
2022/04/12 06:37:32;;;;;;;11.65;6.93;;;;;;;8.61;64.23;100947.88;5110806;28;20031;-74
2022/04/12 06:39:58;;;;;;;10.10;6.93;;;;;;;8.63;65.06;100946.13;5104130;28;20032;-74
2022/04/12 06:42:23;;;;;;;13.20;7.13;;;;;;;8.74;63.43;100956.38;5099321;28;20032;-74
2022/04/12 06:44:49;;;;;;;10.90;6.72;;;;;;;8.79;64.22;100953.69;5098600;28;20027;-74
2022/04/12 06:47:16;;;;;;;9.88;7.20;;;;;;;8.85;64.23;100945.81;5118611;28;20031;-74
2022/04/12 06:49:45;;;;;;;12.32;7.03;;;;;;;8.93;63.95;100935.28;5116855;27;20027;-74
2022/04/12 06:52:11;;;;;;;12.85;7.13;;;;;;;8.99;63.84;100938.69;5102398;27;20055;-74
2022/04/12 06:54:36;;;;;;;11.15;7.18;;;;;;;9.10;63.04;100936.75;5108915;28;20028;-75
2022/04/12 06:57:01;;;;;;;11.50;6.85;;;;;;;9.22;62.15;100940.94;5130652;27;20027;-75
2022/04/12 06:59:27;;;;;;;10.35;6.38;;;;;;;9.36;62.84;100941.53;5135898;27;20088;-75
2022/04/12 07:01:52;;;;;;;18.38;7.50;;;;;;;9.51;61.02;100947.34;5135948;27;20026;-75
2022/04/12 07:04:17;;;;;;;12.77;7.10;;;;;;;9.64;62.72;100940.19;5120987;27;20032;-75
2022/04/12 07:06:42;;;;;;;16.40;6.47;;;;;;;9.76;62.43;100937.38;5116302;27;20036;-75
2022/04/12 07:09:11;;;;;;;14.68;6.95;;;;;;;9.88;60.98;100928.50;5110120;28;20028;-74
2022/04/12 07:11:36;;;;;;;15.00;6.55;;;;;;;9.97;61.05;100921.34;5115000;28;20016;-74
2022/04/12 07:14:01;;;;;;;14.18;6.35;;;;;;;10.08;60.51;100916.78;5112250;28;20031;-75
2022/04/12 07:16:26;;;;;;;13.10;6.53;;;;;;;10.26;59.99;100930.34;5101309;27;20053;-75
2022/04/12 07:18:52;;;;;;;14.80;6.75;;;;;;;10.42;58.65;100928.28;5113716;27;20031;-75
2022/04/12 07:21:21;;;;;;;13.20;6.60;;;;;;;10.56;58.04;100939.25;5106470;27;20188;-75
2022/04/12 07:23:47;;;;;;;9.73;6.38;;;;;;;10.66;57.77;100932.97;5099302;28;20059;-74
2022/04/12 07:26:12;;;;;;;11.63;6.68;;;;;;;10.81;57.64;100928.28;5113873;28;20027;-74
2022/04/12 07:28:38;;;;;;;13.98;6.40;;;;;;;10.90;59.26;100923.72;5114843;28;20069;-74
2022/04/12 07:31:04;;;;;;;12.70;7.28;;;;;;;11.02;58.70;100919.97;5110302;28;20024;-74
2022/04/12 07:33:30;;;;;;;12.52;5.97;;;;;;;11.19;56.97;100927.38;5110344;28;20096;-75
2022/04/12 07:35:55;;;;;;;10.32;5.60;;;;;;;11.34;57.24;100926.97;5114641;27;20106;-75
2022/04/12 07:38:20;;;;;;;10.70;6.00;;;;;;;11.46;57.29;100925.81;5114087;28;20038;-75
2022/04/12 07:40:45;;;;;;;19.45;6.95;;;;;;;11.45;57.29;100911.91;5096017;28;20514;-78
2022/04/12 07:43:11;;;;;;;10.93;6.35;;;;;;;11.69;57.54;100925.22;5093903;28;20016;-73
2022/04/12 07:45:36;;;;;;;13.82;6.50;;;;;;;11.85;56.39;100921.31;5112004;27;20035;-73
2022/04/12 07:48:02;;;;;;;15.38;5.90;;;;;;;12.05;56.58;100927.75;5113503;28;20036;-73
2022/04/12 07:50:27;;;;;;;9.80;6.00;;;;;;;12.18;54.88;100934.34;5109482;28;20040;-73
2022/04/12 07:52:52;;;;;;;8.93;6.00;;;;;;;12.30;54.05;100922.69;5109974;27;20055;-73
2022/04/12 07:55:17;;;;;;;8.68;5.50;;;;;;;12.43;55.97;100924.03;5114524;28;20024;-74
2022/04/12 07:57:43;;;;;;;9.23;6.03;;;;;;;12.57;55.42;100929.69;5113984;28;20047;-74
2022/04/12 08:00:09;;;;;;;6.97;5.90;;;;;;;12.73;54.85;100932.72;5105972;28;20039;-74
2022/04/12 08:02:34;;;;;;;9.70;5.60;;;;;;;12.83;53.92;100922.81;5093988;28;20488;-73
2022/04/12 08:04:59;;;;;;;7.97;5.63;;;;;;;12.92;53.46;100922.53;5093706;28;20023;-74
2022/04/12 08:07:25;;;;;;;8.57;5.13;;;;;;;13.03;52.04;100927.41;5108629;27;20080;-73
2022/04/12 08:09:50;;;;;;;10.02;5.20;;;;;;;13.07;53.95;100931.63;5116945;27;20030;-73
2022/04/12 08:12:16;;;;;;;8.20;4.95;;;;;;;13.14;53.93;100930.53;5112823;28;20119;-78
2022/04/12 08:14:41;;;;;;;9.65;4.78;;;;;;;13.23;54.43;100929.38;5096252;28;20064;-78
2022/04/12 08:17:06;;;;;;;7.45;4.60;;;;;;;13.30;53.79;100929.16;5105892;28;20133;-73
2022/04/12 08:19:32;;;;;;;9.35;5.10;;;;;;;13.38;52.38;100936.75;5111295;28;20028;-73
2022/04/12 08:21:59;;;;;;;7.43;4.57;;;;;;;13.45;52.20;100937.41;5105005;28;20027;-82
2022/04/12 08:24:24;;;;;;;9.15;5.00;;;;;;;13.48;52.97;100940.78;5117498;27;20026;-80
2022/04/12 08:26:50;;;;;;;5.53;4.32;;;;;;;13.47;52.12;100919.88;5105806;27;20391;-73
2022/04/12 08:29:15;;;;;;;5.55;4.15;;;;;;;13.61;52.19;100930.75;5095614;28;20028;-74
2022/04/12 08:31:41;;;;;;;10.27;3.92;;;;;;;13.68;52.67;100936.63;5113454;28;20403;-78
2022/04/12 08:34:06;;;;;;;10.45;4.03;;;;;;;13.80;52.22;100926.56;5099351;28;20032;-75
2022/04/12 08:36:31;;;;;;;7.45;3.72;;;;;;;13.91;52.09;100931.41;5112593;27;20055;-74
2022/04/12 08:38:57;;;;;;;5.38;3.30;;;;;;;14.03;51.44;100920.50;5112559;28;20035;-74
2022/04/12 08:41:24;;;;;;;4.65;3.05;;;;;;;14.13;51.18;100923.63;5109651;27;20433;-75
2022/04/12 08:43:55;;;;;;;6.80;3.13;;;;;;;14.20;50.85;100913.78;5112712;27;20032;-75
2022/04/12 08:46:24;;;;;;;6.28;3.00;;;;;;;14.22;49.90;100910.19;5105868;27;20035;-74
2022/04/12 08:48:51;;;;;;;6.63;3.30;;;;;;;14.31;50.66;100906.34;5111083;27;20110;-75
2022/04/12 08:51:17;;;;;;;8.30;3.83;;;;;;;14.34;49.84;100892.28;5119590;27;20036;-75
2022/04/12 08:53:42;;;;;;;8.20;3.78;;;;;;;14.38;50.09;100891.22;5119129;27;20024;-74
2022/04/12 08:56:08;;;;;;;4.03;3.00;;;;;;;14.45;50.44;100896.22;5109227;27;20024;-74
2022/04/12 08:58:33;;;;;;;6.28;3.40;;;;;;;14.54;50.52;100895.00;5108562;27;20024;-75
2022/04/12 09:01:00;;;;;;;5.90;3.53;;;;;;;14.61;51.17;100891.22;5113495;27;20039;-75
2022/04/12 09:03:27;;;;;;;7.35;3.10;;;;;;;14.67;48.86;100888.34;5114360;27;20114;-75
2022/04/12 09:05:52;;;;;;;5.45;3.40;;;;;;;14.79;48.88;100900.16;5112348;27;20023;-75
2022/04/12 09:08:31;;;;;;;6.72;3.60;;;;;;;14.86;50.51;100896.34;5106954;27;20537;-75
2022/04/12 09:11:02;;;;;;;5.70;3.83;;;;;;;15.02;49.04;100896.59;5116744;27;20023;-74
2022/04/12 09:13:29;;;;;;;6.18;3.58;;;;;;;15.10;48.84;100889.25;5117081;27;20024;-75
2022/04/12 09:15:54;;;;;;;5.43;3.40;;;;;;;15.20;49.74;100876.59;5113242;27;20125;-74
2022/04/12 09:18:33;;;;;;;4.47;3.33;;;;;;;15.31;49.84;100868.28;5118211;27;20059;-75
2022/04/12 09:21:18;;;;;;;6.78;3.72;;;;;;;15.45;49.54;100860.63;5120586;27;20050;-75
2022/04/12 09:23:46;;;;;;;8.60;3.67;;;;;;;15.61;49.46;100856.41;5117234;27;20141;-75
2022/04/12 09:26:27;;;;;;;6.53;3.40;;;;;;;15.75;48.50;100860.25;5118347;27;20774;-74
2022/04/12 09:28:54;;;;;;;6.45;3.78;;;;;;;15.81;48.58;100863.44;5120311;27;20039;-75
2022/04/12 09:31:20;;;;;;;5.75;3.28;;;;;;;15.96;48.90;100853.16;5114170;27;20144;-73
2022/04/12 09:33:47;;;;;;;6.50;3.33;;;;;;;16.05;47.16;100850.94;5108001;27;20036;-80
2022/04/12 09:36:13;;;;;;;7.18;3.38;;;;;;;16.17;47.06;100848.69;5106804;27;20035;-80
2022/04/12 09:38:40;;;;;;;4.97;3.35;;;;;;;16.31;47.77;100860.25;5109393;27;20020;-80
2022/04/12 09:41:19;;;;;;;6.45;3.40;;;;;;;16.35;47.36;100859.22;5119926;27;20124;-80
2022/04/12 09:44:07;;;;;;;6.47;3.60;;;;;;;16.44;46.62;100865.81;5107555;27;20031;-74
2022/04/12 09:46:33;;;;;;;6.13;3.40;;;;;;;16.53;46.26;100862.75;5104508;27;20031;-74
2022/04/12 09:48:59;;;;;;;7.68;3.25;;;;;;;16.63;48.28;100869.25;5111528;27;20080;-74
2022/04/12 09:51:24;;;;;;;6.50;3.63;;;;;;;16.80;46.99;100865.00;5117103;27;20126;-74
2022/04/12 09:53:50;;;;;;;5.75;3.10;;;;;;;16.97;45.88;100865.03;5111115;27;20578;-74
2022/04/12 09:56:21;;;;;;;4.57;3.03;;;;;;;17.13;46.30;100866.88;5107556;27;20031;-73
2022/04/12 09:58:49;;;;;;;4.95;3.55;;;;;;;17.25;45.42;100866.25;5114520;27;20542;-74
2022/04/12 10:01:16;;;;;;;8.15;3.55;;;;;;;17.32;45.73;100871.13;5113357;27;20023;-74
2022/04/12 10:03:44;;;;;;;9.20;3.72;;;;;;;17.41;45.68;100853.16;5114797;27;20024;-74
2022/04/12 10:06:11;;;;;;;5.53;3.40;;;;;;;17.49;43.95;100845.69;5102577;27;20059;-74
2022/04/12 10:08:36;;;;;;;5.90;3.25;;;;;;;17.53;44.17;100848.09;5104387;27;20041;-74
2022/04/12 10:11:02;;;;;;;3.67;2.97;;;;;;;17.77;44.85;100832.78;5111278;27;20028;-74
2022/04/12 10:13:29;;;;;;;6.38;3.42;;;;;;;18.10;44.33;100821.34;5093767;28;20019;-74
2022/04/12 10:15:55;;;;;;;5.70;3.28;;;;;;;18.44;43.21;100822.97;5092550;28;20081;-74
2022/04/12 10:18:21;;;;;;;4.97;2.97;;;;;;;18.68;42.09;100822.50;5091346;28;20075;-74
2022/04/12 10:20:46;;;;;;;6.68;3.50;;;;;;;18.81;42.74;100827.97;5100620;28;20482;-74
2022/04/12 10:23:14;;;;;;;7.57;3.38;;;;;;;18.79;42.26;100822.75;5111279;28;20035;-73
2022/04/12 10:25:40;;;;;;;7.07;3.90;;;;;;;18.89;42.71;100820.44;5109618;28;20500;-74
2022/04/12 10:28:06;;;;;;;8.20;3.20;;;;;;;19.06;42.45;100803.56;5111671;28;20589;-74
2022/04/12 10:30:32;;;;;;;6.18;3.65;;;;;;;19.14;43.32;100806.63;5111572;28;20498;-73
2022/04/12 10:33:04;;;;;;;5.15;3.40;;;;;;;19.27;41.66;100802.31;5110235;28;20024;-74
2022/04/12 10:35:56;;;;;;;5.45;3.60;;;;;;;19.46;40.16;100804.69;5108944;28;20038;-74
2022/04/12 10:38:23;;;;;;;5.70;3.13;;;;;;;19.76;42.34;100809.06;5128595;27;20039;-75
2022/04/12 10:40:54;;;;;;;7.07;2.75;;;;;;;20.10;40.64;100798.03;5116413;27;20038;-74
2022/04/12 10:43:30;;;;;;;5.68;3.20;;;;;;;20.45;41.40;100800.19;5120475;27;20474;-78
2022/04/12 10:45:56;;;;;;;9.07;3.25;;;;;;;20.67;38.51;100798.84;5111299;28;20019;-80
2022/04/12 10:48:28;;;;;;;5.55;3.42;;;;;;;20.64;39.82;100805.19;5098261;28;20107;-79
2022/04/12 10:50:55;;;;;;;8.13;3.67;;;;;;;20.62;40.64;100807.06;5105080;28;20031;-79
2022/04/12 10:53:36;;;;;;;6.53;3.67;;;;;;;20.62;38.69;100800.94;5105667;28;20028;-79
2022/04/12 10:56:07;;;;;;;6.45;3.38;;;;;;;20.69;38.81;100799.56;5111281;28;20161;-79
2022/04/12 10:58:35;;;;;;;5.40;3.58;;;;;;;20.78;38.52;100791.00;5111403;28;20080;-79
2022/04/12 11:01:02;;;;;;;4.97;3.55;;;;;;;20.77;38.54;100787.50;5111007;28;20055;-79
2022/04/12 11:03:40;;;;;;;8.27;3.47;;;;;;;20.83;39.20;100788.03;5110885;28;20020;-79
2022/04/12 11:06:10;;;;;;;6.93;3.55;;;;;;;20.93;38.68;100792.63;5112560;28;20053;-79
2022/04/12 11:08:35;;;;;;;6.43;3.65;;;;;;;21.07;39.18;100798.81;5110838;28;20058;-79
2022/04/12 11:11:00;;;;;;;6.03;3.93;;;;;;;21.18;38.28;100805.03;5111365;28;20055;-79
2022/04/12 11:13:30;;;;;;;5.43;3.60;;;;;;;21.29;39.48;100796.38;5108783;28;20281;-79
2022/04/12 11:15:57;;;;;;;12.23;3.80;;;;;;;21.36;38.71;100796.84;5100757;28;20040;-79
2022/04/12 11:18:22;;;;;;;6.05;3.95;;;;;;;21.40;36.92;100804.47;5090406;28;20025;-79
2022/04/12 11:21:02;;;;;;;10.85;3.85;;;;;;;21.57;37.88;100794.47;5090655;28;20056;-79
2022/04/12 11:23:51;;;;;;;5.03;3.40;;;;;;;21.63;37.34;100789.59;5089507;28;20028;-79
2022/04/12 11:26:40;;;;;;;6.22;3.85;;;;;;;21.69;37.55;100789.16;5090774;28;20111;-79